Muenster, Texas
Current Conditions -  °F | °C
As of 12:15 PM on Thursday 29 Jan 2015 (Local Time) from KGLE Reporting Station
Clear Clear  
Wind Chill: 62°   Ceiling: Unl
Heat Index: 62°   Visibility: 10mi
Dew Point: 37°   Wind: 16mph
Humidity: 40%   Direction: 340°NNW
Pressure: 30.35"   Gusts: 21mph
Location:  33.65°N, 97.38°W
Report Text: KGLE 291815Z AUTO 34014G18KT 10SM CLR 17/03 A3035 RMK AO2 T01650027
Loading
Personal Weather Stations






























Interactive Weather Map New forecast layout! Learn more

10-Day Weather Forecast

Advertisements
Track Severe Weather on mobile